createdAt,value
2023-05-14T00:01:21.180Z,10.49
2023-05-14T00:03:48.866Z,10.47
2023-05-14T00:06:17.646Z,10.40
2023-05-14T00:08:45.609Z,10.32
2023-05-14T00:11:13.284Z,10.30
2023-05-14T00:13:42.500Z,10.31
2023-05-14T00:16:10.533Z,10.23
2023-05-14T00:18:38.253Z,10.21
2023-05-14T00:21:05.908Z,10.23
2023-05-14T00:23:33.897Z,10.18
2023-05-14T00:26:01.473Z,10.14
2023-05-14T00:28:29.071Z,10.03
2023-05-14T00:30:58.367Z,10.03
2023-05-14T00:33:26.011Z,10.02
2023-05-14T00:35:53.577Z,10.06
2023-05-14T00:38:21.470Z,10.11
2023-05-14T00:40:49.010Z,10.08
2023-05-14T00:43:16.796Z,10.12
2023-05-14T00:45:45.165Z,10.11
2023-05-14T00:48:15.102Z,10.09
2023-05-14T00:50:42.987Z,10.12
2023-05-14T00:53:11.281Z,10.16
2023-05-14T00:55:40.554Z,10.26
2023-05-14T00:58:10.503Z,10.15
2023-05-14T01:00:39.506Z,10.08
2023-05-14T01:03:08.256Z,10.08
2023-05-14T01:05:46.182Z,10.06
2023-05-14T01:08:24.221Z,10.12
2023-05-14T01:10:55.492Z,10.13
2023-05-14T01:13:31.611Z,10.15
2023-05-14T01:16:01.052Z,10.20
2023-05-14T01:18:31.094Z,10.19
2023-05-14T01:21:00.145Z,10.16
2023-05-14T01:23:29.181Z,10.19
2023-05-14T01:25:56.884Z,10.17
2023-05-14T01:28:32.864Z,10.12
2023-05-14T01:31:06.865Z,10.08
2023-05-14T01:33:36.377Z,10.03
2023-05-14T01:36:04.914Z,10.02
2023-05-14T01:38:35.718Z,10.04
2023-05-14T01:41:05.162Z,10.03
2023-05-14T01:43:33.480Z,9.99
2023-05-14T01:46:01.158Z,9.97
2023-05-14T01:48:28.830Z,9.99
2023-05-14T01:50:56.634Z,9.96
2023-05-14T01:53:24.561Z,9.99
2023-05-14T01:55:53.557Z,10.00
2023-05-14T01:58:21.308Z,9.97
2023-05-14T02:00:48.966Z,9.96
2023-05-14T02:03:16.508Z,10.06
2023-05-14T02:05:44.757Z,10.06
2023-05-14T02:08:12.503Z,10.08
2023-05-14T02:10:41.053Z,10.06
2023-05-14T02:13:10.342Z,10.12
2023-05-14T02:15:38.603Z,10.13
2023-05-14T02:18:06.450Z,10.01
2023-05-14T02:20:34.749Z,9.98
2023-05-14T02:23:02.340Z,9.97
2023-05-14T02:25:29.945Z,10.01
2023-05-14T02:27:57.763Z,10.11
2023-05-14T02:30:26.835Z,10.23
2023-05-14T02:32:54.566Z,10.24
2023-05-14T02:35:22.469Z,10.18
2023-05-14T02:37:50.265Z,10.27
2023-05-14T02:40:18.063Z,10.22
2023-05-14T02:42:46.045Z,10.26
2023-05-14T02:45:13.605Z,10.25
2023-05-14T02:47:42.849Z,10.20
2023-05-14T02:50:11.023Z,10.22
2023-05-14T02:52:38.647Z,10.25
2023-05-14T02:55:07.060Z,10.42
2023-05-14T02:57:35.350Z,10.57
2023-05-14T03:00:02.994Z,10.77
2023-05-14T03:02:31.325Z,10.92
2023-05-14T03:05:01.019Z,11.12
2023-05-14T03:07:29.346Z,11.33
2023-05-14T03:09:57.242Z,11.63
2023-05-14T03:12:25.114Z,11.85
2023-05-14T03:14:53.149Z,12.08
2023-05-14T03:17:20.874Z,12.34
2023-05-14T03:19:48.590Z,12.67
2023-05-14T03:22:17.692Z,13.06
2023-05-14T03:24:45.473Z,13.34
2023-05-14T03:27:13.181Z,13.68
2023-05-14T03:29:40.731Z,14.05
2023-05-14T03:32:08.486Z,14.37
2023-05-14T03:34:36.410Z,14.93
2023-05-14T03:37:04.429Z,15.28
2023-05-14T03:39:33.876Z,15.36
2023-05-14T03:42:01.595Z,15.73
2023-05-14T03:44:29.560Z,16.01
2023-05-14T03:46:57.372Z,16.49
2023-05-14T03:49:25.558Z,16.66
2023-05-14T03:51:53.375Z,17.24
2023-05-14T03:54:21.068Z,17.57
2023-05-14T03:56:50.062Z,17.93
2023-05-14T03:59:17.946Z,18.21
2023-05-14T04:01:45.575Z,18.30
2023-05-14T04:04:13.347Z,18.89
2023-05-14T04:06:41.183Z,19.19
2023-05-14T04:09:08.939Z,19.12
2023-05-14T04:11:39.614Z,19.51
2023-05-14T04:14:08.881Z,20.03
2023-05-14T04:16:39.606Z,20.38
2023-05-14T04:19:07.391Z,20.61
2023-05-14T04:21:35.177Z,20.91
2023-05-14T04:24:03.306Z,21.08
2023-05-14T04:26:30.971Z,21.33
2023-05-14T04:28:58.571Z,21.78
2023-05-14T04:31:28.025Z,22.15
2023-05-14T04:33:55.601Z,22.52
2023-05-14T04:36:23.280Z,23.26
2023-05-14T04:38:50.959Z,23.82
2023-05-14T04:41:18.712Z,23.97
2023-05-14T04:43:47.334Z,24.02
2023-05-14T04:46:15.125Z,24.70
2023-05-14T04:48:44.394Z,24.68
2023-05-14T04:51:11.988Z,25.13
2023-05-14T04:53:39.757Z,25.91
2023-05-14T04:56:07.907Z,26.38
2023-05-14T04:58:35.481Z,25.78
2023-05-14T05:01:04.659Z,26.17
2023-05-14T05:03:32.521Z,26.54
2023-05-14T05:06:01.773Z,27.40
2023-05-14T05:08:29.657Z,27.12
2023-05-14T05:10:57.407Z,25.92
2023-05-14T05:13:25.071Z,26.16
2023-05-14T05:15:52.874Z,27.11
2023-05-14T05:18:21.366Z,26.42
2023-05-14T05:20:48.973Z,26.35
2023-05-14T05:23:18.216Z,27.40
2023-05-14T05:25:46.033Z,27.67
2023-05-14T05:28:13.594Z,27.69
2023-05-14T05:30:41.251Z,27.77
2023-05-14T05:33:09.324Z,28.16
2023-05-14T05:35:37.341Z,28.60
2023-05-14T05:38:05.054Z,27.53
2023-05-14T05:40:34.573Z,27.49
2023-05-14T05:43:02.118Z,26.77
2023-05-14T05:45:30.570Z,27.58
2023-05-14T05:47:58.473Z,26.74
2023-05-14T05:50:28.551Z,25.77
2023-05-14T05:53:01.520Z,27.74
2023-05-14T05:55:29.557Z,28.83
2023-05-14T05:57:58.717Z,27.74
2023-05-14T06:00:26.747Z,28.80
2023-05-14T06:02:54.536Z,29.05
2023-05-14T06:05:22.372Z,28.63
2023-05-14T06:07:50.113Z,28.62
2023-05-14T06:10:17.862Z,29.50
2023-05-14T06:12:45.724Z,28.99
2023-05-14T06:15:15.128Z,29.32
2023-05-14T06:17:43.062Z,30.75
2023-05-14T06:20:11.702Z,30.30
2023-05-14T06:22:40.237Z,30.20
2023-05-14T06:25:08.756Z,30.17
2023-05-14T06:27:36.733Z,29.74
2023-05-14T06:30:05.287Z,30.93
2023-05-14T06:32:34.818Z,31.34
2023-05-14T06:35:02.555Z,30.77
2023-05-14T06:37:30.539Z,31.88
2023-05-14T06:39:58.194Z,30.78
2023-05-14T06:42:26.105Z,31.45
2023-05-14T06:44:53.891Z,31.85
2023-05-14T06:47:21.474Z,32.39
2023-05-14T06:49:50.633Z,32.12
2023-05-14T06:52:18.357Z,30.74
2023-05-14T06:54:45.887Z,30.67
2023-05-14T06:57:13.583Z,30.79
2023-05-14T06:59:41.326Z,30.28
2023-05-14T07:02:09.033Z,31.47
2023-05-14T07:04:36.787Z,31.94
2023-05-14T07:07:06.188Z,31.64
2023-05-14T07:09:33.894Z,32.23
2023-05-14T07:12:01.700Z,31.98
2023-05-14T07:14:29.653Z,30.56
2023-05-14T07:16:57.416Z,30.09
2023-05-14T07:19:25.161Z,30.98
2023-05-14T07:21:53.270Z,32.38
2023-05-14T07:24:22.287Z,30.89
2023-05-14T07:26:50.136Z,32.22
2023-05-14T07:29:17.910Z,30.78
2023-05-14T07:31:45.546Z,30.85
2023-05-14T07:34:13.336Z,29.85
2023-05-14T07:36:41.207Z,29.55
2023-05-14T07:39:08.908Z,30.12
2023-05-14T07:41:38.184Z,29.47
2023-05-14T07:44:05.838Z,28.91
2023-05-14T07:46:33.463Z,28.95
2023-05-14T07:49:01.122Z,28.04
2023-05-14T07:51:28.924Z,27.88
2023-05-14T07:53:56.478Z,28.62
2023-05-14T07:56:24.250Z,29.31
2023-05-14T07:58:53.450Z,28.99
2023-05-14T08:01:21.100Z,28.56
2023-05-14T08:03:49.111Z,29.85
2023-05-14T08:06:16.935Z,30.77
2023-05-14T08:08:44.708Z,29.14
2023-05-14T08:11:12.382Z,30.03
2023-05-14T08:13:40.129Z,29.94
2023-05-14T08:16:09.242Z,30.21
2023-05-14T08:18:36.967Z,30.03
2023-05-14T08:21:05.173Z,30.02
2023-05-14T08:23:33.173Z,30.38
2023-05-14T08:26:00.893Z,29.47
2023-05-14T08:28:28.495Z,29.64
2023-05-14T08:30:56.092Z,29.46
2023-05-14T08:33:25.275Z,28.91
2023-05-14T08:35:53.676Z,28.22
2023-05-14T08:38:21.261Z,28.74
2023-05-14T08:40:54.020Z,29.15
2023-05-14T08:43:28.090Z,29.12
2023-05-14T08:46:01.240Z,28.79
2023-05-14T08:48:33.733Z,29.00
2023-05-14T08:51:02.451Z,28.62
2023-05-14T08:53:31.182Z,28.25
2023-05-14T08:56:01.652Z,27.71
2023-05-14T08:58:29.606Z,27.83
2023-05-14T09:00:57.212Z,27.76
2023-05-14T09:03:25.191Z,28.07
2023-05-14T09:05:55.212Z,28.31
2023-05-14T09:08:23.011Z,28.81
2023-05-14T09:10:50.734Z,28.91
2023-05-14T09:13:18.622Z,28.40
2023-05-14T09:15:48.097Z,28.68
2023-05-14T09:18:15.914Z,28.04
2023-05-14T09:20:43.899Z,28.51
2023-05-14T09:23:12.867Z,28.05
2023-05-14T09:25:40.851Z,28.31
2023-05-14T09:28:09.634Z,28.53
2023-05-14T09:30:37.953Z,29.16
2023-05-14T09:33:05.559Z,28.83
2023-05-14T09:35:33.641Z,28.56
2023-05-14T09:38:01.441Z,28.73
2023-05-14T09:40:30.468Z,28.70
2023-05-14T09:43:15.882Z,28.61
2023-05-14T09:45:43.569Z,28.89
2023-05-14T09:48:11.293Z,29.31
2023-05-14T09:50:42.765Z,29.64
2023-05-14T09:53:10.441Z,29.86
2023-05-14T09:55:39.889Z,29.58
2023-05-14T09:58:07.704Z,29.78
2023-05-14T10:00:36.214Z,30.19
2023-05-14T10:03:06.949Z,30.00
2023-05-14T10:05:36.075Z,30.01
2023-05-14T10:08:09.104Z,29.98
2023-05-14T10:10:39.589Z,29.78
2023-05-14T10:13:12.773Z,29.97
2023-05-14T10:15:47.607Z,29.96
2023-05-14T10:18:19.402Z,29.42
2023-05-14T10:20:50.755Z,28.58
2023-05-14T10:23:18.926Z,28.43
2023-05-14T10:25:48.002Z,28.50
2023-05-14T10:28:16.257Z,28.76
2023-05-14T10:30:47.009Z,29.21
2023-05-14T10:33:15.779Z,29.53
2023-05-14T10:36:17.499Z,29.68
2023-05-14T10:38:56.410Z,29.74
2023-05-14T10:41:31.289Z,29.28
2023-05-14T10:44:02.612Z,29.48
2023-05-14T10:46:30.609Z,29.54
2023-05-14T10:49:03.404Z,29.52
2023-05-14T10:51:36.597Z,29.67
2023-05-14T10:54:04.553Z,29.57
2023-05-14T10:56:34.140Z,29.46
2023-05-14T10:59:02.979Z,29.76
2023-05-14T11:01:32.165Z,29.49
2023-05-14T11:04:00.059Z,29.46
2023-05-14T11:06:28.402Z,29.53
2023-05-14T11:08:56.772Z,29.43
2023-05-14T11:11:24.480Z,29.49
2023-05-14T11:13:57.179Z,29.15
2023-05-14T11:16:27.946Z,28.37
2023-05-14T11:19:01.962Z,27.51
2023-05-14T11:21:29.976Z,27.86
2023-05-14T11:23:57.868Z,28.28
2023-05-14T11:26:25.735Z,28.58
2023-05-14T11:28:54.942Z,28.65
2023-05-14T11:31:22.727Z,28.56
2023-05-14T11:33:52.410Z,28.82
2023-05-14T11:36:20.404Z,29.05
2023-05-14T11:38:48.425Z,28.85
2023-05-14T11:41:16.217Z,28.90
2023-05-14T11:43:44.099Z,29.01
2023-05-14T11:46:18.299Z,28.69
2023-05-14T11:48:46.324Z,28.80
2023-05-14T11:51:13.930Z,28.95
2023-05-14T11:53:41.745Z,29.12
2023-05-14T11:56:10.083Z,28.58
2023-05-14T11:58:37.760Z,28.41
2023-05-14T12:01:05.827Z,28.03
2023-05-14T12:03:35.780Z,28.32
2023-05-14T12:06:07.158Z,27.98
2023-05-14T12:08:34.890Z,28.13
2023-05-14T12:11:02.515Z,27.78
2023-05-14T12:13:31.222Z,27.97
2023-05-14T12:16:01.027Z,27.73
2023-05-14T12:18:30.973Z,27.81
2023-05-14T12:21:04.914Z,27.68
2023-05-14T12:23:33.274Z,27.89
2023-05-14T12:26:05.232Z,28.00
2023-05-14T12:28:34.869Z,28.17
2023-05-14T12:31:03.785Z,28.05
2023-05-14T12:33:31.657Z,27.98
2023-05-14T12:36:02.486Z,27.88
2023-05-14T12:38:39.756Z,27.68
2023-05-14T12:41:07.326Z,27.97
2023-05-14T12:43:35.336Z,28.08
2023-05-14T12:46:03.192Z,27.94
2023-05-14T12:48:30.855Z,28.13
2023-05-14T12:50:58.389Z,28.02
2023-05-14T12:53:26.126Z,27.70
2023-05-14T12:55:55.225Z,27.65
2023-05-14T12:58:22.993Z,27.84
2023-05-14T13:00:50.891Z,27.26
2023-05-14T13:03:18.553Z,27.27
2023-05-14T13:05:46.113Z,27.63
2023-05-14T13:08:14.179Z,27.45
2023-05-14T13:10:41.723Z,27.32
2023-05-14T13:13:11.422Z,27.15
2023-05-14T13:15:39.378Z,27.04
2023-05-14T13:18:09.356Z,26.72
2023-05-14T13:20:37.185Z,26.68
2023-05-14T13:23:05.106Z,26.95
2023-05-14T13:25:32.902Z,27.10
2023-05-14T13:28:00.449Z,26.86
2023-05-14T13:30:29.838Z,27.18
2023-05-14T13:32:57.685Z,27.04
2023-05-14T13:35:25.601Z,27.04
2023-05-14T13:37:53.873Z,27.20
2023-05-14T13:40:21.557Z,27.24
2023-05-14T13:42:49.228Z,27.23
2023-05-14T13:45:17.745Z,27.30
2023-05-14T13:47:46.984Z,27.37
2023-05-14T13:50:15.532Z,27.44
2023-05-14T13:52:43.434Z,27.35
2023-05-14T13:55:11.211Z,26.97
2023-05-14T13:57:39.645Z,26.91
2023-05-14T14:00:08.713Z,26.75
2023-05-14T14:02:38.558Z,26.38
2023-05-14T14:05:08.830Z,26.28
2023-05-14T14:07:36.692Z,26.29
2023-05-14T14:10:05.045Z,26.36
2023-05-14T14:12:33.066Z,26.08
2023-05-14T14:15:00.972Z,25.99
2023-05-14T14:17:28.595Z,26.03
2023-05-14T14:19:56.251Z,25.97
2023-05-14T14:22:27.317Z,25.89
2023-05-14T14:24:56.780Z,25.87
2023-05-14T14:27:24.392Z,25.94
2023-05-14T14:29:52.194Z,25.76
2023-05-14T14:32:20.162Z,25.96
2023-05-14T14:34:47.940Z,25.95
2023-05-14T14:37:15.499Z,25.85
2023-05-14T14:39:44.671Z,25.78
2023-05-14T14:42:12.721Z,25.57
2023-05-14T14:44:40.270Z,25.40
2023-05-14T14:47:08.080Z,25.28
2023-05-14T14:49:36.320Z,25.22
2023-05-14T14:52:04.158Z,25.01
2023-05-14T14:54:32.172Z,24.99
2023-05-14T14:57:01.384Z,25.11
2023-05-14T14:59:28.948Z,25.00
2023-05-14T15:01:56.926Z,25.10
2023-05-14T15:04:24.692Z,25.16
2023-05-14T15:06:52.313Z,24.87
2023-05-14T15:09:20.080Z,24.83
2023-05-14T15:11:47.736Z,24.86
2023-05-14T15:14:16.816Z,24.68
2023-05-14T15:16:44.699Z,24.53
2023-05-14T15:19:12.742Z,24.35
2023-05-14T15:21:40.356Z,24.20
2023-05-14T15:24:11.573Z,24.28
2023-05-14T15:26:39.453Z,24.45
2023-05-14T15:29:07.029Z,24.43
2023-05-14T15:31:36.609Z,24.26
2023-05-14T15:34:04.792Z,24.34
2023-05-14T15:36:33.143Z,24.32
2023-05-14T15:39:00.884Z,24.31
2023-05-14T15:41:28.908Z,24.21
2023-05-14T15:43:56.560Z,24.03
2023-05-14T15:46:24.344Z,23.98
2023-05-14T15:48:53.427Z,23.91
2023-05-14T15:51:21.015Z,23.85
2023-05-14T15:53:48.825Z,23.76
2023-05-14T15:56:16.512Z,23.57
2023-05-14T15:58:44.131Z,23.53
2023-05-14T16:01:11.849Z,23.42
2023-05-14T16:03:39.735Z,23.22
2023-05-14T16:06:08.997Z,23.09
2023-05-14T16:08:37.316Z,23.01
2023-05-14T16:11:05.486Z,22.94
2023-05-14T16:13:33.673Z,22.77
2023-05-14T16:16:01.609Z,22.73
2023-05-14T16:18:29.787Z,22.56
2023-05-14T16:20:57.387Z,22.43
2023-05-14T16:23:26.653Z,22.28
2023-05-14T16:25:54.369Z,22.18
2023-05-14T16:28:22.053Z,21.89
2023-05-14T16:30:49.778Z,21.72
2023-05-14T16:33:17.672Z,21.57
2023-05-14T16:35:45.312Z,21.50
2023-05-14T16:38:13.057Z,21.25
2023-05-14T16:40:42.191Z,21.01
2023-05-14T16:43:09.761Z,20.81
2023-05-14T16:45:37.915Z,20.66
2023-05-14T16:48:06.082Z,20.57
2023-05-14T16:50:33.986Z,20.57
2023-05-14T16:53:01.688Z,20.33
2023-05-14T16:55:29.639Z,20.25
2023-05-14T16:57:58.631Z,19.93
2023-05-14T17:00:26.508Z,19.69
2023-05-14T17:02:54.318Z,19.42
2023-05-14T17:05:22.450Z,19.21
2023-05-14T17:07:50.240Z,19.02
2023-05-14T17:10:20.881Z,18.92
2023-05-14T17:12:48.718Z,18.70
2023-05-14T17:15:17.904Z,18.48
2023-05-14T17:17:48.425Z,18.20
2023-05-14T17:20:16.900Z,18.12
2023-05-14T17:22:45.079Z,17.91
2023-05-14T17:25:12.733Z,17.75
2023-05-14T17:27:40.367Z,17.66
2023-05-14T17:30:09.301Z,17.63
2023-05-14T17:32:38.689Z,17.46
2023-05-14T17:35:06.575Z,17.40
2023-05-14T17:37:35.197Z,17.23
2023-05-14T17:40:03.087Z,17.12
2023-05-14T17:42:30.920Z,16.97
2023-05-14T17:44:58.991Z,16.93
2023-05-14T17:47:26.628Z,16.73
2023-05-14T17:49:55.687Z,16.65
2023-05-14T17:52:23.430Z,16.60
2023-05-14T17:54:51.047Z,16.54
2023-05-14T17:57:20.762Z,16.22
2023-05-14T17:59:48.590Z,16.07
2023-05-14T18:02:22.396Z,16.02
2023-05-14T18:04:50.432Z,15.90
2023-05-14T18:07:20.315Z,15.64
2023-05-14T18:09:48.416Z,16.00
2023-05-14T18:12:16.598Z,15.81
2023-05-14T18:14:45.658Z,15.67
2023-05-14T18:17:14.185Z,14.99
2023-05-14T18:19:42.285Z,14.82
2023-05-14T18:22:10.013Z,14.94
2023-05-14T18:24:40.620Z,14.66
2023-05-14T18:27:08.979Z,14.74
2023-05-14T18:29:37.000Z,14.68
2023-05-14T18:32:07.974Z,14.45
2023-05-14T18:34:35.978Z,14.22
2023-05-14T18:37:03.704Z,14.50
2023-05-14T18:39:31.413Z,14.42
2023-05-14T18:42:00.660Z,14.35
2023-05-14T18:44:34.138Z,14.26
2023-05-14T18:47:01.887Z,14.18
2023-05-14T18:49:29.608Z,14.08
2023-05-14T18:51:57.500Z,13.92
2023-05-14T18:54:35.566Z,13.43
2023-05-14T18:57:05.574Z,13.90
2023-05-14T18:59:33.393Z,13.85
2023-05-14T19:02:01.081Z,13.73
2023-05-14T19:04:33.555Z,13.69
2023-05-14T19:07:02.195Z,13.24
2023-05-14T19:09:30.060Z,13.71
2023-05-14T19:11:57.716Z,13.70
2023-05-14T19:14:26.965Z,13.52
2023-05-14T19:16:54.958Z,13.40
2023-05-14T19:19:22.886Z,13.21
2023-05-14T19:21:54.266Z,13.11
2023-05-14T19:24:26.322Z,12.97
2023-05-14T19:26:56.414Z,12.97
2023-05-14T19:29:26.258Z,12.91
2023-05-14T19:32:04.100Z,12.78
2023-05-14T19:34:36.110Z,12.25
2023-05-14T19:37:04.456Z,12.76
2023-05-14T19:39:33.056Z,12.76
2023-05-14T19:42:00.638Z,12.81
2023-05-14T19:44:29.876Z,12.82
2023-05-14T19:46:57.739Z,12.88
2023-05-14T19:49:25.402Z,12.79
2023-05-14T19:51:53.135Z,12.70
2023-05-14T19:54:20.818Z,12.66
2023-05-14T19:56:48.864Z,12.53
2023-05-14T19:59:16.717Z,12.59
2023-05-14T20:01:45.904Z,12.70
2023-05-14T20:04:13.578Z,12.65
2023-05-14T20:06:41.463Z,12.54
2023-05-14T20:09:09.755Z,12.50
2023-05-14T20:11:37.925Z,12.39
2023-05-14T20:14:05.711Z,12.31
2023-05-14T20:16:33.525Z,12.14
2023-05-14T20:19:02.669Z,12.15
2023-05-14T20:21:30.784Z,12.19
2023-05-14T20:23:58.615Z,12.12
2023-05-14T20:26:26.301Z,12.15
2023-05-14T20:28:54.111Z,12.12
2023-05-14T20:31:21.898Z,12.12
2023-05-14T20:33:49.541Z,12.13
2023-05-14T20:36:19.080Z,12.11
2023-05-14T20:38:46.942Z,11.90
2023-05-14T20:41:16.077Z,11.62
2023-05-14T20:43:43.738Z,11.39
2023-05-14T20:46:11.506Z,11.41
2023-05-14T20:48:39.319Z,11.41
2023-05-14T20:51:07.037Z,11.35
2023-05-14T20:53:36.499Z,11.41
2023-05-14T20:56:04.167Z,11.44
2023-05-14T20:58:32.027Z,11.42
2023-05-14T21:01:00.423Z,11.35
2023-05-14T21:03:28.301Z,11.24
2023-05-14T21:05:56.165Z,11.17
2023-05-14T21:08:23.766Z,11.05
2023-05-14T21:10:52.961Z,10.92
2023-05-14T21:13:21.016Z,10.93
2023-05-14T21:15:49.061Z,10.90
2023-05-14T21:18:16.650Z,10.90
2023-05-14T21:20:44.341Z,10.86
2023-05-14T21:23:12.023Z,10.90
2023-05-14T21:25:39.641Z,10.87
2023-05-14T21:28:08.848Z,10.83
2023-05-14T21:30:36.492Z,10.71
2023-05-14T21:33:04.335Z,10.78
2023-05-14T21:35:32.219Z,10.81
2023-05-14T21:38:00.181Z,10.84
2023-05-14T21:40:27.799Z,10.79
2023-05-14T21:42:55.521Z,10.69
2023-05-14T21:45:24.962Z,10.67
2023-05-14T21:47:52.972Z,10.65
2023-05-14T21:50:20.692Z,10.52
2023-05-14T21:52:48.441Z,10.49
2023-05-14T21:55:16.167Z,10.27
2023-05-14T21:57:44.456Z,10.47
2023-05-14T22:00:13.436Z,10.56
2023-05-14T22:02:42.700Z,10.67
2023-05-14T22:05:10.620Z,10.68
2023-05-14T22:07:38.368Z,10.50
2023-05-14T22:10:06.521Z,10.51
2023-05-14T22:12:34.351Z,10.30
2023-05-14T22:15:02.278Z,10.14
2023-05-14T22:17:30.834Z,9.99
2023-05-14T22:20:00.138Z,9.97
2023-05-14T22:22:27.768Z,9.90
2023-05-14T22:24:55.821Z,9.86
2023-05-14T22:27:23.642Z,9.84
2023-05-14T22:29:51.326Z,9.84
2023-05-14T22:32:18.889Z,9.92
2023-05-14T22:34:46.648Z,9.88
2023-05-14T22:37:15.834Z,9.77
2023-05-14T22:39:43.592Z,9.87
2023-05-14T22:42:11.350Z,9.91
2023-05-14T22:44:39.186Z,9.78
2023-05-14T22:47:07.065Z,9.77
2023-05-14T22:49:34.924Z,9.69
2023-05-14T22:52:02.570Z,9.72
2023-05-14T22:54:31.831Z,9.77
2023-05-14T22:56:59.662Z,9.79
2023-05-14T22:59:27.281Z,9.82
2023-05-14T23:01:54.927Z,9.71
2023-05-14T23:04:22.848Z,9.85
2023-05-14T23:06:50.665Z,9.90
2023-05-14T23:09:18.229Z,9.78
2023-05-14T23:11:47.493Z,9.84
2023-05-14T23:14:15.507Z,10.01
2023-05-14T23:16:43.162Z,10.00
2023-05-14T23:19:11.179Z,9.85
2023-05-14T23:21:39.126Z,9.71
2023-05-14T23:24:07.350Z,9.72
2023-05-14T23:26:35.601Z,9.78
2023-05-14T23:29:04.650Z,9.87
2023-05-14T23:34:15.554Z,9.59
2023-05-14T23:36:43.153Z,9.58
2023-05-14T23:39:11.160Z,9.61
2023-05-14T23:41:38.970Z,9.52
2023-05-14T23:44:07.906Z,9.45
2023-05-14T23:46:35.915Z,9.43
2023-05-14T23:49:04.056Z,9.35
2023-05-14T23:51:31.758Z,9.09
2023-05-14T23:53:59.304Z,9.06
2023-05-14T23:56:27.744Z,9.03
2023-05-14T23:58:55.586Z,8.92
